createdAt,value
2022-08-26T00:00:53.012Z,13.62
2022-08-26T00:01:58.113Z,10.46
2022-08-26T00:03:04.111Z,11.55
2022-08-26T00:04:12.047Z,13.60
2022-08-26T00:05:15.982Z,12.92
2022-08-26T00:06:21.255Z,11.19
2022-08-26T00:07:26.333Z,12.34
2022-08-26T00:08:29.947Z,12.52
2022-08-26T00:09:38.916Z,12.12
2022-08-26T00:10:42.733Z,11.80
2022-08-26T00:11:47.200Z,13.81
2022-08-26T00:14:07.001Z,13.19
2022-08-26T00:15:14.998Z,12.74
2022-08-26T00:16:19.965Z,10.93
2022-08-26T00:17:25.912Z,11.56
2022-08-26T00:18:38.799Z,11.29
2022-08-26T00:19:46.178Z,12.28
2022-08-26T00:20:53.056Z,12.08
2022-08-26T00:21:58.481Z,11.57
2022-08-26T00:23:03.273Z,15.17
2022-08-26T00:24:06.712Z,12.27
2022-08-26T00:25:13.980Z,11.90
2022-08-26T00:26:21.436Z,13.26
2022-08-26T00:27:25.817Z,13.44
2022-08-26T00:28:28.979Z,11.66
2022-08-26T00:29:35.546Z,11.68
2022-08-26T00:30:40.251Z,12.19
2022-08-26T00:31:45.961Z,12.81
2022-08-26T00:32:51.416Z,11.94
2022-08-26T00:33:56.894Z,12.53
2022-08-26T00:35:00.592Z,11.66
2022-08-26T00:36:08.562Z,11.38
2022-08-26T00:37:21.428Z,11.98
2022-08-26T00:38:30.676Z,13.97
2022-08-26T00:39:34.768Z,11.69
2022-08-26T00:40:42.658Z,15.29
2022-08-26T00:41:50.730Z,11.92
2022-08-26T00:44:08.667Z,13.08
2022-08-26T00:45:13.537Z,10.67
2022-08-26T00:46:29.746Z,11.58
2022-08-26T00:47:39.735Z,12.45
2022-08-26T00:48:46.270Z,12.68
2022-08-26T00:49:58.472Z,12.16
2022-08-26T00:51:14.784Z,10.93
2022-08-26T00:52:23.318Z,12.13
2022-08-26T00:53:30.116Z,13.17
2022-08-26T00:54:42.254Z,10.49
2022-08-26T00:55:45.858Z,12.72
2022-08-26T00:57:00.812Z,14.19
2022-08-26T00:58:07.329Z,10.60
2022-08-26T00:59:13.626Z,11.74
2022-08-26T01:00:25.774Z,11.17
2022-08-26T01:01:30.658Z,11.30
2022-08-26T01:02:34.071Z,12.22
2022-08-26T01:03:39.126Z,13.16
2022-08-26T01:04:45.777Z,12.89
2022-08-26T01:05:56.717Z,12.51
2022-08-26T01:07:01.126Z,13.96
2022-08-26T01:08:05.606Z,12.51
2022-08-26T01:09:09.467Z,10.61
2022-08-26T01:10:20.496Z,12.10
2022-08-26T01:11:26.393Z,12.97
2022-08-26T01:12:33.795Z,14.94
2022-08-26T01:13:37.889Z,12.05
2022-08-26T01:14:43.652Z,12.86
2022-08-26T01:15:53.119Z,11.49
2022-08-26T01:16:57.286Z,12.03
2022-08-26T01:18:05.831Z,11.76
2022-08-26T01:19:22.264Z,13.39
2022-08-26T01:20:38.922Z,10.73
2022-08-26T01:21:55.105Z,12.79
2022-08-26T01:23:08.002Z,11.87
2022-08-26T01:24:14.060Z,10.66
2022-08-26T01:25:19.218Z,14.82
2022-08-26T01:26:34.800Z,11.21
2022-08-26T01:27:39.759Z,11.55
2022-08-26T01:28:44.461Z,13.45
2022-08-26T01:29:51.670Z,11.21
2022-08-26T01:31:00.569Z,14.69
2022-08-26T01:32:07.679Z,12.18
2022-08-26T01:33:14.881Z,15.72
2022-08-26T01:34:25.781Z,11.05
2022-08-26T01:35:31.907Z,13.22
2022-08-26T01:36:38.189Z,11.06
2022-08-26T01:37:43.366Z,10.65
2022-08-26T01:38:47.008Z,10.02
2022-08-26T01:39:54.457Z,12.88
2022-08-26T01:42:15.318Z,11.64
2022-08-26T01:43:24.667Z,12.52
2022-08-26T01:44:32.103Z,10.92
2022-08-26T01:45:40.762Z,11.81
2022-08-26T01:46:47.172Z,12.26
2022-08-26T01:47:56.550Z,10.17
2022-08-26T01:49:06.581Z,11.81
2022-08-26T01:50:18.061Z,12.79
2022-08-26T01:51:25.082Z,12.35
2022-08-26T01:52:32.185Z,11.52
2022-08-26T01:53:39.071Z,10.99
2022-08-26T01:54:46.336Z,11.80
2022-08-26T01:55:54.812Z,10.54
2022-08-26T01:56:59.449Z,11.68
2022-08-26T01:58:06.269Z,12.44
2022-08-26T01:59:14.349Z,10.83
2022-08-26T02:00:20.396Z,9.62
2022-08-26T02:01:29.129Z,10.83
2022-08-26T02:02:32.591Z,11.97
2022-08-26T02:03:39.318Z,12.15
2022-08-26T02:06:06.535Z,10.58
2022-08-26T02:07:15.672Z,10.91
2022-08-26T02:08:30.855Z,11.04
2022-08-26T02:09:41.401Z,10.48
2022-08-26T02:11:51.215Z,12.96
2022-08-26T02:12:55.031Z,10.23
2022-08-26T02:14:06.360Z,11.64
2022-08-26T02:15:16.694Z,11.44
2022-08-26T02:16:24.453Z,14.06
2022-08-26T02:17:34.927Z,12.29
2022-08-26T02:18:42.107Z,10.95
2022-08-26T02:19:49.658Z,10.62
2022-08-26T02:20:55.398Z,11.69
2022-08-26T02:22:06.076Z,12.14
2022-08-26T02:23:12.911Z,10.27
2022-08-26T02:24:21.690Z,10.90
2022-08-26T02:25:52.652Z,10.46
2022-08-26T02:26:58.609Z,11.17
2022-08-26T02:28:04.487Z,11.36
2022-08-26T02:29:12.828Z,10.47
2022-08-26T02:30:28.371Z,10.43
2022-08-26T02:31:33.069Z,8.98
2022-08-26T02:32:36.982Z,11.21
2022-08-26T02:33:45.627Z,12.05
2022-08-26T02:34:48.212Z,11.54
2022-08-26T02:35:52.056Z,10.41
2022-08-26T02:37:03.690Z,9.28
2022-08-26T02:38:13.743Z,9.34
2022-08-26T02:39:22.032Z,10.97
2022-08-26T02:40:28.836Z,11.38
2022-08-26T02:41:33.395Z,10.87
2022-08-26T02:42:39.149Z,11.77
2022-08-26T02:43:44.169Z,9.84
2022-08-26T02:44:48.989Z,9.78
2022-08-26T02:45:53.172Z,9.46
2022-08-26T02:46:58.089Z,11.11
2022-08-26T02:48:09.313Z,13.06
2022-08-26T02:49:13.503Z,10.29
2022-08-26T02:50:20.799Z,9.51
2022-08-26T02:51:24.997Z,12.31
2022-08-26T02:52:29.232Z,11.94
2022-08-26T02:53:35.497Z,13.85
2022-08-26T02:54:41.878Z,10.12
2022-08-26T02:55:48.552Z,12.55
2022-08-26T02:56:52.778Z,10.87
2022-08-26T02:57:55.706Z,12.01
2022-08-26T02:58:59.970Z,13.01
2022-08-26T03:00:06.635Z,13.21
2022-08-26T03:01:22.463Z,12.13
2022-08-26T03:02:27.180Z,10.04
2022-08-26T03:03:31.437Z,11.44
2022-08-26T03:04:36.505Z,10.67
2022-08-26T03:05:44.350Z,11.53
2022-08-26T03:06:52.754Z,14.29
2022-08-26T03:07:56.225Z,12.27
2022-08-26T03:09:00.342Z,9.77
2022-08-26T03:10:08.351Z,11.73
2022-08-26T03:11:12.367Z,9.37
2022-08-26T03:12:15.559Z,11.27
2022-08-26T03:13:19.794Z,9.34
2022-08-26T03:14:23.655Z,10.03
2022-08-26T03:15:31.472Z,11.58
2022-08-26T03:16:38.906Z,12.14
2022-08-26T03:17:43.839Z,12.18
2022-08-26T03:18:52.388Z,10.15
2022-08-26T03:19:57.218Z,9.33
2022-08-26T03:21:14.043Z,11.51
2022-08-26T03:22:18.765Z,13.39
2022-08-26T03:23:24.864Z,11.24
2022-08-26T03:24:28.826Z,10.76
2022-08-26T03:25:33.338Z,9.74
2022-08-26T03:26:40.663Z,12.42
2022-08-26T03:27:45.755Z,10.33
2022-08-26T03:29:09.450Z,13.08
2022-08-26T03:30:34.211Z,11.46
2022-08-26T03:31:37.757Z,11.05
2022-08-26T03:32:43.753Z,11.66
2022-08-26T03:33:49.582Z,11.28
2022-08-26T03:34:57.441Z,10.33
2022-08-26T03:36:06.907Z,10.42
2022-08-26T03:37:12.834Z,10.32
2022-08-26T03:38:15.503Z,11.74
2022-08-26T03:39:19.348Z,9.08
2022-08-26T03:40:29.037Z,10.69
2022-08-26T03:41:31.371Z,9.17
2022-08-26T03:42:37.153Z,11.93
2022-08-26T03:43:41.278Z,11.67
2022-08-26T03:44:45.135Z,9.73
2022-08-26T03:45:51.795Z,10.27
2022-08-26T03:46:56.601Z,10.11
2022-08-26T03:48:03.141Z,9.79
2022-08-26T03:50:25.353Z,10.67
2022-08-26T03:51:31.196Z,10.01
2022-08-26T03:52:39.709Z,10.74
2022-08-26T03:53:44.088Z,10.03
2022-08-26T03:54:47.976Z,11.20
2022-08-26T03:55:53.302Z,10.85
2022-08-26T03:56:57.554Z,9.97
2022-08-26T03:58:03.401Z,9.86
2022-08-26T03:59:08.575Z,11.44
2022-08-26T04:00:18.418Z,11.14
2022-08-26T04:01:23.319Z,13.21
2022-08-26T04:02:28.846Z,11.04
2022-08-26T04:03:52.890Z,12.79
2022-08-26T04:04:57.153Z,11.44
2022-08-26T04:06:00.662Z,10.16
2022-08-26T04:07:04.553Z,11.83
2022-08-26T04:08:10.116Z,11.67
2022-08-26T04:09:17.099Z,10.36
2022-08-26T04:10:28.983Z,10.79
2022-08-26T04:11:38.293Z,10.31
2022-08-26T04:12:41.894Z,9.38
2022-08-26T04:13:48.249Z,9.44
2022-08-26T04:14:53.245Z,10.37
2022-08-26T04:15:58.220Z,11.99
2022-08-26T04:17:03.388Z,11.43
2022-08-26T04:18:07.470Z,10.43
2022-08-26T04:19:16.237Z,10.36
2022-08-26T04:20:20.464Z,12.74
2022-08-26T04:21:29.452Z,9.78
2022-08-26T04:22:33.414Z,10.34
2022-08-26T04:23:46.878Z,10.84
2022-08-26T04:24:41.883Z,11.20
2022-08-26T04:25:47.130Z,11.78
2022-08-26T04:26:52.202Z,10.26
2022-08-26T04:27:57.780Z,10.92
2022-08-26T04:29:03.384Z,10.88
2022-08-26T04:30:10.518Z,11.86
2022-08-26T04:31:16.830Z,10.86
2022-08-26T04:32:24.028Z,10.22
2022-08-26T04:33:32.259Z,11.94
2022-08-26T04:34:36.091Z,9.21
2022-08-26T04:35:40.600Z,9.54
2022-08-26T04:36:46.273Z,10.14
2022-08-26T04:37:51.575Z,8.39
2022-08-26T04:38:57.428Z,11.51
2022-08-26T04:40:00.933Z,11.07
2022-08-26T04:41:05.424Z,11.59
2022-08-26T04:42:09.147Z,8.81
2022-08-26T04:43:16.701Z,8.86
2022-08-26T04:44:21.797Z,10.54
2022-08-26T04:45:26.973Z,10.20
2022-08-26T04:46:32.805Z,12.00
2022-08-26T04:47:38.625Z,7.76
2022-08-26T04:48:41.837Z,10.48
2022-08-26T04:49:47.359Z,10.73
2022-08-26T04:50:50.820Z,8.54
2022-08-26T04:51:55.018Z,7.82
2022-08-26T04:53:01.602Z,12.79
2022-08-26T04:54:07.907Z,8.03
2022-08-26T04:55:11.853Z,8.85
2022-08-26T04:56:15.497Z,11.39
2022-08-26T04:57:19.912Z,10.03
2022-08-26T04:58:26.825Z,10.69
2022-08-26T04:59:30.129Z,8.88
2022-08-26T05:00:37.870Z,11.68
2022-08-26T05:01:49.454Z,10.00
2022-08-26T05:02:53.908Z,11.69
2022-08-26T05:03:59.774Z,8.67
2022-08-26T05:05:06.050Z,9.93
2022-08-26T05:06:12.828Z,11.93
2022-08-26T05:07:17.679Z,11.49
2022-08-26T05:08:22.274Z,10.76
2022-08-26T05:09:30.643Z,8.35
2022-08-26T05:10:34.637Z,9.11
2022-08-26T05:11:39.001Z,8.52
2022-08-26T05:12:44.366Z,10.95
2022-08-26T05:13:52.604Z,8.46
2022-08-26T05:14:56.799Z,9.74
2022-08-26T05:16:13.213Z,8.44
2022-08-26T05:17:17.496Z,9.93
2022-08-26T05:18:25.313Z,7.84
2022-08-26T05:19:30.719Z,10.77
2022-08-26T05:20:46.935Z,8.55
2022-08-26T05:21:50.733Z,9.82
2022-08-26T05:22:55.734Z,8.14
2022-08-26T05:23:59.619Z,9.31
2022-08-26T05:25:04.208Z,8.69
2022-08-26T05:26:09.342Z,8.82
2022-08-26T05:27:14.724Z,9.77
2022-08-26T05:28:22.737Z,6.99
2022-08-26T05:29:25.772Z,8.52
2022-08-26T05:30:33.076Z,10.91
2022-08-26T05:31:41.109Z,8.93
2022-08-26T05:32:46.022Z,10.68
2022-08-26T05:33:50.405Z,8.81
2022-08-26T05:34:58.584Z,8.91
2022-08-26T05:36:11.863Z,12.10
2022-08-26T05:37:20.461Z,10.62
2022-08-26T05:38:24.662Z,10.91
2022-08-26T05:39:34.020Z,9.28
2022-08-26T05:40:45.662Z,9.97
2022-08-26T05:41:49.421Z,7.56
2022-08-26T05:42:55.453Z,8.14
2022-08-26T05:44:04.288Z,7.41
2022-08-26T05:45:14.577Z,7.37
2022-08-26T05:46:20.257Z,10.04
2022-08-26T05:47:25.489Z,9.38
2022-08-26T05:48:31.756Z,8.91
2022-08-26T05:49:35.536Z,8.35
2022-08-26T05:50:47.650Z,8.53
2022-08-26T05:51:51.425Z,8.78
2022-08-26T05:52:55.172Z,7.44
2022-08-26T05:53:59.241Z,8.86
2022-08-26T05:55:02.986Z,9.47
2022-08-26T05:56:08.953Z,10.29
2022-08-26T05:57:14.507Z,12.18
2022-08-26T05:58:22.692Z,8.21
2022-08-26T05:59:27.481Z,8.88
2022-08-26T06:00:30.706Z,10.68
2022-08-26T06:01:35.691Z,8.17
2022-08-26T06:02:40.050Z,8.38
2022-08-26T06:03:51.511Z,10.66
2022-08-26T06:04:59.029Z,7.90
2022-08-26T06:06:09.742Z,13.08
2022-08-26T06:07:14.471Z,8.52
2022-08-26T06:08:20.512Z,4.96
2022-08-26T06:09:27.272Z,9.84
2022-08-26T06:10:32.919Z,9.47
2022-08-26T06:11:36.119Z,10.79
2022-08-26T06:12:39.096Z,10.99
2022-08-26T06:13:47.018Z,9.31
2022-08-26T06:14:51.175Z,9.13
2022-08-26T06:15:55.713Z,6.50
2022-08-26T06:17:01.730Z,7.30
2022-08-26T06:18:05.758Z,9.75
2022-08-26T06:19:11.618Z,9.43
2022-08-26T06:20:17.411Z,6.98
2022-08-26T06:21:29.352Z,6.47
2022-08-26T06:22:50.547Z,8.74
2022-08-26T06:24:15.988Z,5.46
2022-08-26T06:25:37.106Z,7.17
2022-08-26T06:26:46.705Z,7.88
2022-08-26T06:27:51.952Z,12.33
2022-08-26T06:28:56.639Z,6.03
2022-08-26T06:29:59.103Z,10.47
2022-08-26T06:31:03.952Z,7.14
2022-08-26T06:32:07.092Z,8.34
2022-08-26T06:33:13.759Z,6.76
2022-08-26T06:34:21.500Z,9.64
2022-08-26T06:35:24.490Z,9.01
2022-08-26T06:36:35.063Z,7.08
2022-08-26T06:37:41.498Z,9.71
2022-08-26T06:38:44.501Z,9.39
2022-08-26T06:39:48.336Z,8.64
2022-08-26T06:40:59.763Z,9.72
2022-08-26T06:42:06.174Z,7.57
2022-08-26T06:43:11.117Z,8.76
2022-08-26T06:44:16.335Z,9.15
2022-08-26T06:45:21.304Z,7.37
2022-08-26T06:46:33.126Z,8.63
2022-08-26T06:47:37.236Z,10.09
2022-08-26T06:48:40.313Z,11.45
2022-08-26T06:49:46.889Z,10.32
2022-08-26T06:50:51.924Z,10.99
2022-08-26T06:52:00.002Z,8.18
2022-08-26T06:53:04.217Z,12.61
2022-08-26T06:54:09.059Z,8.09
2022-08-26T06:55:14.743Z,10.24
2022-08-26T06:56:22.879Z,8.31
2022-08-26T06:57:31.687Z,11.04
2022-08-26T06:58:41.061Z,10.01
2022-08-26T06:59:44.944Z,9.95
2022-08-26T07:00:48.026Z,8.96
2022-08-26T07:01:52.060Z,8.38
2022-08-26T07:02:58.456Z,8.82
2022-08-26T07:04:07.921Z,9.59
2022-08-26T07:05:11.018Z,7.19
2022-08-26T07:06:17.760Z,11.18
2022-08-26T07:07:23.079Z,8.66
2022-08-26T07:08:27.594Z,13.31
2022-08-26T07:09:32.114Z,7.22
2022-08-26T07:10:39.860Z,10.30
2022-08-26T07:11:48.335Z,8.22
2022-08-26T07:12:53.344Z,9.25
2022-08-26T07:13:58.382Z,10.18
2022-08-26T07:15:03.033Z,10.56
2022-08-26T07:16:13.211Z,10.13
2022-08-26T07:17:16.542Z,7.78
2022-08-26T07:18:19.261Z,9.06
2022-08-26T07:19:30.814Z,6.76
2022-08-26T07:20:34.372Z,10.35
2022-08-26T07:21:37.430Z,7.48
2022-08-26T07:22:42.511Z,7.63
2022-08-26T07:23:49.721Z,9.97
2022-08-26T07:24:52.686Z,8.23
2022-08-26T07:25:56.156Z,9.73
2022-08-26T07:27:03.933Z,11.92
2022-08-26T07:28:09.502Z,10.64
2022-08-26T07:29:14.494Z,11.25
2022-08-26T07:30:21.762Z,7.97
2022-08-26T07:31:36.076Z,10.66
2022-08-26T07:32:37.621Z,9.51
2022-08-26T07:33:42.243Z,13.65
2022-08-26T07:34:46.445Z,9.67
2022-08-26T07:35:53.184Z,9.84
2022-08-26T07:36:56.486Z,18.05
2022-08-26T07:38:01.608Z,7.04
2022-08-26T07:39:07.143Z,7.48
2022-08-26T07:40:12.215Z,9.19
2022-08-26T07:41:17.826Z,8.06
2022-08-26T07:42:24.401Z,8.53
2022-08-26T07:43:30.516Z,11.34
2022-08-26T07:44:33.967Z,11.26
2022-08-26T07:45:37.064Z,7.47
2022-08-26T07:46:44.153Z,7.05
2022-08-26T07:47:51.130Z,9.41
2022-08-26T07:48:55.199Z,7.73
2022-08-26T07:49:59.328Z,7.46
2022-08-26T07:51:06.086Z,8.07
2022-08-26T07:52:10.305Z,7.43
2022-08-26T07:53:15.618Z,7.89
2022-08-26T07:54:26.900Z,7.58
2022-08-26T07:55:28.297Z,8.18
2022-08-26T07:56:33.072Z,13.56
2022-08-26T07:57:37.822Z,7.67
2022-08-26T07:58:44.959Z,4.96
2022-08-26T07:59:48.578Z,8.57
2022-08-26T08:00:53.494Z,8.61
2022-08-26T08:01:59.167Z,7.46
2022-08-26T08:03:09.417Z,8.14
2022-08-26T08:04:16.389Z,6.32
2022-08-26T08:05:27.188Z,12.88
2022-08-26T08:06:30.959Z,7.19
2022-08-26T08:07:44.177Z,12.21
2022-08-26T08:08:41.491Z,8.78
2022-08-26T08:09:46.391Z,16.60
2022-08-26T08:10:50.051Z,9.99
2022-08-26T08:11:54.030Z,8.83
2022-08-26T08:13:03.583Z,9.76
2022-08-26T08:14:11.825Z,7.99
2022-08-26T08:15:21.978Z,8.33
2022-08-26T08:16:33.469Z,7.51
2022-08-26T08:17:38.385Z,6.83
2022-08-26T08:18:42.077Z,6.15
2022-08-26T08:19:45.748Z,8.81
2022-08-26T08:21:04.791Z,12.71
2022-08-26T08:21:54.953Z,8.88
2022-08-26T08:22:59.884Z,12.25
2022-08-26T08:24:05.429Z,9.13
2022-08-26T08:25:10.865Z,5.57
2022-08-26T08:26:15.237Z,8.56
2022-08-26T08:27:24.466Z,10.22
2022-08-26T08:28:30.754Z,7.52
2022-08-26T08:29:40.355Z,8.68
2022-08-26T08:30:44.161Z,8.03
2022-08-26T08:31:57.025Z,7.42
2022-08-26T08:32:58.899Z,6.88
2022-08-26T08:34:06.575Z,12.42
2022-08-26T08:35:13.217Z,8.20
2022-08-26T08:36:18.481Z,5.94
2022-08-26T08:37:23.394Z,9.87
2022-08-26T08:38:28.249Z,3.99
2022-08-26T08:39:32.911Z,6.86
2022-08-26T08:40:41.312Z,4.37
2022-08-26T08:43:37.799Z,6.47
2022-08-26T08:44:51.888Z,6.65
2022-08-26T08:46:01.982Z,6.15
2022-08-26T08:47:17.639Z,6.62
2022-08-26T08:48:35.458Z,7.25
2022-08-26T08:49:40.248Z,7.08
2022-08-26T08:50:48.745Z,4.61
2022-08-26T08:52:13.532Z,6.91
2022-08-26T08:53:36.514Z,9.64
2022-08-26T08:54:42.833Z,13.21
2022-08-26T08:56:26.418Z,5.80
2022-08-26T08:57:46.932Z,5.10
2022-08-26T08:59:00.680Z,5.28
2022-08-26T09:00:09.991Z,6.77
2022-08-26T09:02:38.082Z,7.98
2022-08-26T09:03:57.919Z,6.51
2022-08-26T09:05:14.947Z,5.51
2022-08-26T09:06:21.949Z,6.58
2022-08-26T09:07:44.373Z,11.19
2022-08-26T09:08:54.725Z,3.66
2022-08-26T09:10:03.338Z,4.78
2022-08-26T09:11:07.031Z,5.36
2022-08-26T09:12:14.177Z,8.32
2022-08-26T09:13:25.404Z,6.18
2022-08-26T09:14:27.280Z,4.99
2022-08-26T09:15:57.952Z,6.05
2022-08-26T09:17:17.636Z,6.45
2022-08-26T09:19:49.858Z,4.77
2022-08-26T09:21:05.546Z,5.45
2022-08-26T09:22:09.870Z,4.56
2022-08-26T09:23:14.411Z,5.20
2022-08-26T09:24:18.253Z,5.04
2022-08-26T09:25:22.316Z,4.09
2022-08-26T09:26:35.524Z,6.34
2022-08-26T09:27:53.533Z,6.84
2022-08-26T09:29:03.627Z,7.53
2022-08-26T09:31:36.470Z,6.90
2022-08-26T09:34:29.660Z,6.46
2022-08-26T09:36:55.161Z,6.97
2022-08-26T09:39:08.475Z,3.58
2022-08-26T09:40:34.828Z,4.17
2022-08-26T09:41:36.606Z,5.05
2022-08-26T09:42:41.167Z,4.26
2022-08-26T09:44:06.047Z,3.53
2022-08-26T09:45:12.511Z,3.50
2022-08-26T09:46:21.271Z,4.07
2022-08-26T09:48:36.630Z,5.32
2022-08-26T09:49:42.168Z,5.68
2022-08-26T09:51:01.394Z,5.47
2022-08-26T09:52:23.539Z,4.06
2022-08-26T09:53:39.647Z,4.83
2022-08-26T09:54:51.334Z,4.16
2022-08-26T09:56:15.807Z,5.48
2022-08-26T09:58:40.336Z,2.78
2022-08-26T09:59:46.224Z,4.99
2022-08-26T10:00:58.518Z,4.31
2022-08-26T10:02:20.393Z,5.31
2022-08-26T10:04:33.878Z,5.63
2022-08-26T10:05:47.175Z,3.16
2022-08-26T10:07:09.313Z,6.16
2022-08-26T10:08:23.896Z,6.89
2022-08-26T10:09:29.824Z,5.50
2022-08-26T10:10:45.751Z,4.64
2022-08-26T10:11:56.604Z,5.27
2022-08-26T10:13:07.663Z,5.07
2022-08-26T10:14:30.883Z,6.47
2022-08-26T10:15:41.312Z,7.42
2022-08-26T10:16:54.890Z,4.21
2022-08-26T10:18:06.911Z,6.22
2022-08-26T10:19:17.741Z,7.69
2022-08-26T10:20:25.541Z,6.75
2022-08-26T10:21:33.648Z,6.18
2022-08-26T10:22:54.866Z,7.08
2022-08-26T10:24:02.317Z,6.70
2022-08-26T10:25:09.239Z,4.70
2022-08-26T10:26:17.009Z,6.33
2022-08-26T10:27:25.551Z,8.03
2022-08-26T10:28:51.040Z,3.69
2022-08-26T10:30:13.143Z,4.82
2022-08-26T10:31:38.161Z,6.76
2022-08-26T10:32:46.433Z,4.71
2022-08-26T10:33:52.529Z,7.15
2022-08-26T10:35:00.079Z,6.39
2022-08-26T10:36:08.708Z,6.08
2022-08-26T10:37:22.934Z,5.59
2022-08-26T10:38:38.377Z,5.01
2022-08-26T10:39:58.544Z,3.97
2022-08-26T10:41:18.229Z,5.06
2022-08-26T10:43:31.361Z,4.56
2022-08-26T10:44:40.222Z,6.39
2022-08-26T10:47:01.144Z,5.07
2022-08-26T10:49:18.947Z,11.54
2022-08-26T10:50:29.796Z,4.28
2022-08-26T10:51:38.985Z,5.04
2022-08-26T10:52:48.952Z,8.17
2022-08-26T10:54:03.738Z,6.91
2022-08-26T10:55:11.143Z,5.76
2022-08-26T10:56:41.372Z,7.62
2022-08-26T10:57:55.225Z,6.41
2022-08-26T10:59:17.435Z,7.07
2022-08-26T11:00:43.886Z,7.72
2022-08-26T11:02:03.945Z,5.83
2022-08-26T11:03:31.025Z,7.92
2022-08-26T11:04:54.139Z,4.51
2022-08-26T11:06:20.703Z,5.15
2022-08-26T11:07:39.802Z,4.94
2022-08-26T11:09:02.627Z,5.30
2022-08-26T11:10:17.791Z,6.58
2022-08-26T11:11:43.094Z,6.59
2022-08-26T11:12:53.472Z,10.16
2022-08-26T11:15:02.974Z,4.29
2022-08-26T11:16:12.296Z,4.89
2022-08-26T11:17:20.113Z,7.38
2022-08-26T11:18:39.480Z,7.23
2022-08-26T11:20:01.954Z,9.99
2022-08-26T11:21:05.550Z,4.24
2022-08-26T11:22:33.246Z,4.26
2022-08-26T11:23:41.773Z,5.64
2022-08-26T11:24:47.990Z,2.97
2022-08-26T11:26:01.420Z,4.02
2022-08-26T11:27:09.262Z,4.10
2022-08-26T11:28:17.724Z,6.43
2022-08-26T11:29:43.056Z,4.46
2022-08-26T11:30:56.806Z,3.39
2022-08-26T11:31:58.075Z,4.16
2022-08-26T11:33:01.971Z,5.68
2022-08-26T11:34:10.777Z,4.08
2022-08-26T11:35:20.694Z,3.90
2022-08-26T11:37:51.776Z,3.49
2022-08-26T11:38:55.238Z,5.71
2022-08-26T11:39:59.094Z,6.45
2022-08-26T11:41:13.256Z,5.29
2022-08-26T11:42:33.013Z,4.42
2022-08-26T11:43:38.951Z,3.78
2022-08-26T11:44:49.433Z,3.87
2022-08-26T11:46:01.452Z,6.84
2022-08-26T11:47:11.402Z,5.57
2022-08-26T11:48:23.861Z,3.77
2022-08-26T11:49:29.601Z,6.43
2022-08-26T11:50:33.937Z,3.86
2022-08-26T11:51:40.845Z,4.89
2022-08-26T11:53:06.122Z,4.76
2022-08-26T11:54:17.662Z,5.23
2022-08-26T11:55:27.816Z,3.97
2022-08-26T11:56:35.019Z,3.42
2022-08-26T11:57:55.566Z,3.66
2022-08-26T11:59:01.665Z,4.81
2022-08-26T12:00:13.560Z,3.73
2022-08-26T12:02:42.604Z,7.00
2022-08-26T12:03:50.198Z,7.08
2022-08-26T12:04:55.439Z,5.24
2022-08-26T12:06:00.082Z,4.89
2022-08-26T12:07:05.573Z,3.71
2022-08-26T12:08:15.560Z,6.32
2022-08-26T12:10:38.789Z,6.31
2022-08-26T12:11:42.609Z,8.14
2022-08-26T12:12:52.402Z,7.09
2022-08-26T12:13:59.439Z,5.71
2022-08-26T12:15:19.014Z,6.24
2022-08-26T12:16:29.899Z,4.69
2022-08-26T12:18:44.794Z,6.55
2022-08-26T12:19:51.183Z,6.21
2022-08-26T12:20:58.083Z,5.79
2022-08-26T12:22:05.435Z,5.52
2022-08-26T12:23:09.586Z,6.33
2022-08-26T12:24:17.392Z,6.12
2022-08-26T12:25:25.942Z,6.53
2022-08-26T12:26:34.677Z,4.97
2022-08-26T12:27:44.839Z,5.92
2022-08-26T12:28:52.441Z,5.06
2022-08-26T12:30:14.059Z,4.52
2022-08-26T12:31:31.669Z,5.90
2022-08-26T12:32:57.290Z,5.72
2022-08-26T12:33:51.238Z,6.20
2022-08-26T12:34:57.003Z,7.63
2022-08-26T12:36:02.986Z,6.13
2022-08-26T12:37:10.669Z,4.21
2022-08-26T12:38:13.661Z,6.22
2022-08-26T12:39:30.265Z,4.02
2022-08-26T12:40:39.644Z,3.56
2022-08-26T12:41:46.536Z,3.98
2022-08-26T12:42:50.107Z,4.91
2022-08-26T12:43:58.568Z,5.85
2022-08-26T12:45:07.305Z,6.64
2022-08-26T12:46:17.176Z,5.87
2022-08-26T12:47:42.752Z,5.05
2022-08-26T12:48:42.934Z,10.53
2022-08-26T12:49:46.172Z,9.21
2022-08-26T12:50:53.845Z,4.28
2022-08-26T12:51:57.661Z,4.53
2022-08-26T12:53:04.809Z,6.00
2022-08-26T12:54:13.101Z,4.51
2022-08-26T12:55:30.704Z,6.87
2022-08-26T12:56:41.239Z,6.44
2022-08-26T12:57:50.124Z,8.00
2022-08-26T12:59:13.469Z,6.14
2022-08-26T13:00:28.529Z,5.87
2022-08-26T13:01:44.466Z,5.31
2022-08-26T13:02:47.903Z,3.86
2022-08-26T13:03:51.573Z,4.10
2022-08-26T13:05:00.847Z,6.13
2022-08-26T13:06:20.978Z,6.17
2022-08-26T13:07:28.431Z,4.77
2022-08-26T13:09:44.986Z,5.42
2022-08-26T13:10:52.639Z,4.24
2022-08-26T13:11:58.924Z,5.31
2022-08-26T13:13:01.647Z,7.15
2022-08-26T13:14:18.320Z,5.46
2022-08-26T13:15:19.908Z,6.11
2022-08-26T13:16:28.847Z,4.34
2022-08-26T13:17:35.034Z,7.29
2022-08-26T13:18:40.965Z,4.22
2022-08-26T13:19:44.553Z,9.63
2022-08-26T13:20:47.645Z,5.29
2022-08-26T13:21:55.229Z,6.69
2022-08-26T13:23:01.139Z,6.20
2022-08-26T13:24:07.630Z,3.97
2022-08-26T13:25:10.618Z,4.45
2022-08-26T13:26:16.255Z,7.78
2022-08-26T13:27:21.759Z,7.00
2022-08-26T13:28:28.505Z,6.26
2022-08-26T13:29:31.906Z,4.40
2022-08-26T13:30:37.446Z,4.98
2022-08-26T13:31:45.331Z,5.22
2022-08-26T13:32:50.605Z,6.69
2022-08-26T13:33:55.948Z,4.13
2022-08-26T13:35:05.790Z,6.36
2022-08-26T13:36:06.796Z,3.84
2022-08-26T13:37:12.129Z,6.09
2022-08-26T13:38:22.322Z,5.59
2022-08-26T13:39:25.859Z,2.70
2022-08-26T13:40:34.317Z,4.04
2022-08-26T13:41:38.886Z,4.42
2022-08-26T13:42:49.525Z,4.19
2022-08-26T13:43:52.618Z,4.57
2022-08-26T13:44:57.548Z,3.52
2022-08-26T13:46:04.207Z,4.52
2022-08-26T13:47:08.267Z,3.82
2022-08-26T13:48:20.296Z,4.10
2022-08-26T13:49:22.417Z,3.89
2022-08-26T13:50:28.293Z,7.56
2022-08-26T13:51:33.008Z,4.94
2022-08-26T13:52:38.244Z,4.08
2022-08-26T13:53:41.728Z,5.64
2022-08-26T13:54:46.379Z,5.98
2022-08-26T13:55:52.982Z,5.82
2022-08-26T13:56:55.970Z,6.20
2022-08-26T13:58:02.679Z,3.61
2022-08-26T13:59:05.795Z,11.12
2022-08-26T14:00:13.381Z,6.44
2022-08-26T14:01:18.588Z,8.72
2022-08-26T14:02:25.403Z,8.47
2022-08-26T14:03:29.511Z,7.84
2022-08-26T14:04:33.700Z,7.01
2022-08-26T14:05:37.756Z,7.02
2022-08-26T14:06:41.110Z,8.15
2022-08-26T14:07:43.820Z,8.51
2022-08-26T14:08:50.383Z,4.96
2022-08-26T14:09:54.694Z,7.53
2022-08-26T14:10:58.893Z,6.54
2022-08-26T14:12:03.816Z,5.85
2022-08-26T14:13:09.172Z,4.17
2022-08-26T14:14:11.866Z,5.67
2022-08-26T14:15:16.683Z,5.05
2022-08-26T14:16:24.738Z,8.12
2022-08-26T14:17:30.720Z,5.02
2022-08-26T14:18:42.559Z,5.19
2022-08-26T14:19:48.842Z,4.49
2022-08-26T14:22:06.816Z,5.96
2022-08-26T14:23:13.955Z,5.46
2022-08-26T14:24:16.865Z,7.33
2022-08-26T14:25:25.752Z,3.92
2022-08-26T14:26:30.593Z,6.18
2022-08-26T14:27:37.465Z,4.62
2022-08-26T14:28:42.613Z,5.82
2022-08-26T14:29:47.608Z,5.07
2022-08-26T14:30:56.624Z,3.07
2022-08-26T14:32:05.303Z,4.63
2022-08-26T14:33:16.944Z,3.92
2022-08-26T14:35:28.865Z,3.93
2022-08-26T14:36:33.893Z,7.76
2022-08-26T14:37:40.603Z,5.72
2022-08-26T14:38:43.476Z,8.58
2022-08-26T14:41:04.311Z,4.66
2022-08-26T14:42:10.640Z,5.89
2022-08-26T14:43:17.054Z,7.50
2022-08-26T14:44:21.111Z,4.71
2022-08-26T14:45:30.134Z,3.33
2022-08-26T14:46:39.115Z,6.83
2022-08-26T14:47:42.143Z,5.31
2022-08-26T14:48:46.442Z,5.69
2022-08-26T14:49:52.627Z,5.84
2022-08-26T14:50:56.303Z,5.27
2022-08-26T14:52:00.551Z,8.81
2022-08-26T14:53:22.133Z,7.17
2022-08-26T14:54:28.186Z,5.94
2022-08-26T14:55:36.375Z,5.65
2022-08-26T14:57:03.391Z,7.48
2022-08-26T14:58:07.426Z,10.59
2022-08-26T14:59:13.511Z,6.59
2022-08-26T15:00:18.009Z,5.68
2022-08-26T15:01:22.227Z,6.50
2022-08-26T15:02:32.910Z,5.28
2022-08-26T15:03:31.402Z,7.67
2022-08-26T15:04:35.594Z,4.82
2022-08-26T15:05:42.200Z,5.65
2022-08-26T15:06:46.870Z,5.40
2022-08-26T15:07:50.725Z,6.38
2022-08-26T15:08:57.027Z,3.77
2022-08-26T15:10:01.384Z,6.77
2022-08-26T15:11:08.752Z,8.98
2022-08-26T15:12:14.179Z,5.77
2022-08-26T15:13:21.563Z,5.18
2022-08-26T15:14:30.943Z,6.06
2022-08-26T15:15:34.424Z,7.48
2022-08-26T15:16:39.149Z,6.79
2022-08-26T15:17:43.908Z,6.28
2022-08-26T15:18:50.576Z,7.04
2022-08-26T15:19:54.103Z,4.74
2022-08-26T15:20:59.070Z,7.84
2022-08-26T15:22:04.540Z,9.01
2022-08-26T15:23:09.468Z,5.64
2022-08-26T15:24:23.036Z,5.51
2022-08-26T15:25:28.285Z,9.25
2022-08-26T15:26:35.273Z,7.12
2022-08-26T15:27:39.807Z,7.47
2022-08-26T15:28:43.268Z,7.35